createdAt,value
2022-09-10T00:00:21.178Z,88.76
2022-09-10T00:01:20.766Z,88.96
2022-09-10T00:02:20.757Z,89.26
2022-09-10T00:03:20.734Z,89.87
2022-09-10T00:04:20.721Z,90.38
2022-09-10T00:05:20.706Z,90.08
2022-09-10T00:06:21.186Z,89.92
2022-09-10T00:07:20.795Z,90.32
2022-09-10T00:08:20.665Z,90.32
2022-09-10T00:09:20.655Z,90.32
2022-09-10T00:10:20.642Z,90.93
2022-09-10T00:11:20.995Z,92.45
2022-09-10T00:12:20.627Z,93.16
2022-09-10T00:13:20.599Z,93.26
2022-09-10T00:14:20.590Z,92.55
2022-09-10T00:15:20.582Z,92.76
2022-09-10T00:16:21.034Z,92.80
2022-09-10T00:17:20.547Z,93.00
2022-09-10T00:18:20.528Z,93.91
2022-09-10T00:19:20.516Z,94.22
2022-09-10T00:20:20.516Z,93.71
2022-09-10T00:21:20.916Z,93.71
2022-09-10T00:22:20.496Z,94.02
2022-09-10T00:23:20.469Z,93.81
2022-09-10T00:24:20.465Z,94.53
2022-09-10T00:25:20.434Z,94.42
2022-09-10T00:26:20.774Z,94.93
2022-09-10T00:27:20.415Z,94.53
2022-09-10T00:28:20.395Z,93.96
2022-09-10T00:29:20.381Z,95.18
2022-09-10T00:30:20.373Z,95.18
2022-09-10T00:31:20.727Z,94.98
2022-09-10T00:32:20.350Z,95.07
2022-09-10T00:33:20.332Z,94.87
2022-09-10T00:34:20.313Z,94.77
2022-09-10T00:35:20.304Z,95.38
2022-09-10T00:36:20.720Z,96.30
2022-09-10T00:37:20.284Z,96.90
2022-09-10T00:38:20.262Z,97.11
2022-09-10T00:39:20.253Z,97.11
2022-09-10T00:40:20.243Z,97.31
2022-09-10T00:41:20.643Z,97.71
2022-09-10T00:42:20.218Z,97.92
2022-09-10T00:43:20.195Z,98.02
2022-09-10T00:44:20.185Z,98.32
2022-09-10T00:45:20.168Z,98.63
2022-09-10T00:46:20.535Z,98.93
2022-09-10T00:47:20.146Z,98.88
2022-09-10T00:48:20.140Z,98.93
2022-09-10T00:49:20.120Z,98.88
2022-09-10T00:50:20.118Z,98.97
2022-09-10T00:51:20.530Z,99.08
2022-09-10T00:52:20.079Z,98.88
2022-09-10T00:53:20.068Z,98.97
2022-09-10T00:54:20.056Z,98.88
2022-09-10T00:55:20.040Z,98.77
2022-09-10T00:56:20.460Z,98.57
2022-09-10T00:57:20.018Z,98.27
2022-09-10T00:58:20.003Z,98.16
2022-09-10T00:59:19.988Z,98.27
2022-09-10T01:00:19.979Z,97.96
2022-09-10T01:01:20.387Z,97.66
2022-09-10T01:02:19.963Z,97.56
2022-09-10T01:03:24.875Z,96.84
2022-09-10T01:04:20.926Z,96.75
2022-09-10T01:05:19.907Z,96.75
2022-09-10T01:06:20.247Z,96.75
2022-09-10T01:07:19.880Z,96.54
2022-09-10T01:08:19.873Z,96.44
2022-09-10T01:09:19.867Z,96.34
2022-09-10T01:10:19.838Z,96.64
2022-09-10T01:11:20.150Z,96.34
2022-09-10T01:12:19.815Z,96.44
2022-09-10T01:13:19.815Z,95.83
2022-09-10T01:14:19.786Z,95.73
2022-09-10T01:15:19.775Z,96.44
2022-09-10T01:16:20.267Z,96.64
2022-09-10T01:17:19.764Z,96.95
2022-09-10T01:18:19.736Z,97.35
2022-09-10T01:19:19.726Z,97.96
2022-09-10T01:20:19.707Z,98.27
2022-09-10T01:21:20.129Z,98.68
2022-09-10T01:22:19.695Z,98.97
2022-09-10T01:23:19.682Z,99.18
2022-09-10T01:24:19.663Z,99.49
2022-09-10T01:25:19.653Z,99.79
2022-09-10T01:26:20.005Z,99.89
2022-09-10T01:27:19.623Z,99.89
2022-09-10T01:28:19.614Z,99.89
2022-09-10T01:29:19.584Z,99.89
2022-09-10T01:30:19.585Z,99.89
2022-09-10T01:31:19.992Z,99.84
2022-09-10T01:32:19.554Z,99.74
2022-09-10T01:33:19.544Z,99.58
2022-09-10T01:34:19.533Z,99.58
2022-09-10T01:35:19.520Z,99.58
2022-09-10T01:36:19.922Z,99.58
2022-09-10T01:37:19.490Z,99.69
2022-09-10T01:38:19.482Z,99.79
2022-09-10T01:39:19.467Z,99.89
2022-09-10T01:40:19.461Z,99.79
2022-09-10T01:41:19.861Z,99.79
2022-09-10T01:42:19.429Z,99.79
2022-09-10T01:43:19.414Z,99.99
2022-09-10T01:44:19.411Z,99.99
2022-09-10T01:45:19.406Z,99.99
2022-09-10T01:46:19.811Z,99.99
2022-09-10T01:47:19.371Z,99.99
2022-09-10T01:48:19.354Z,99.99
2022-09-10T01:49:19.346Z,99.99
2022-09-10T01:50:19.322Z,99.99
2022-09-10T01:51:19.681Z,99.99
2022-09-10T01:52:19.299Z,99.89
2022-09-10T01:53:19.283Z,99.69
2022-09-10T01:54:19.271Z,99.69
2022-09-10T01:55:19.260Z,99.58
2022-09-10T01:56:19.569Z,99.49
2022-09-10T01:57:19.237Z,99.49
2022-09-10T01:58:19.230Z,99.49
2022-09-10T01:59:19.198Z,99.49
2022-09-10T02:00:19.194Z,99.38
2022-09-10T02:01:19.672Z,99.28
2022-09-10T02:02:19.202Z,99.33
2022-09-10T02:03:19.151Z,99.44
2022-09-10T02:04:19.137Z,99.44
2022-09-10T02:05:19.119Z,99.44
2022-09-10T02:06:19.117Z,99.33
2022-09-10T02:07:19.530Z,99.54
2022-09-10T02:08:19.097Z,99.95
2022-09-10T02:09:19.069Z,99.99
2022-09-10T02:10:19.058Z,99.99
2022-09-10T02:11:19.047Z,99.99
2022-09-10T02:12:19.447Z,99.99
2022-09-10T02:13:19.017Z,99.99
2022-09-10T02:14:19.007Z,99.99
2022-09-10T02:15:18.995Z,99.99
2022-09-10T02:16:19.008Z,99.99
2022-09-10T02:17:19.328Z,99.99
2022-09-10T02:18:18.959Z,99.99
2022-09-10T02:19:18.942Z,99.99
2022-09-10T02:20:18.925Z,99.99
2022-09-10T02:21:18.915Z,99.99
2022-09-10T02:22:19.129Z,99.99
2022-09-10T02:23:18.888Z,99.99
2022-09-10T02:24:18.920Z,99.99
2022-09-10T02:25:18.865Z,99.99
2022-09-10T02:26:18.845Z,99.99
2022-09-10T02:27:19.086Z,99.99
2022-09-10T02:28:18.822Z,99.99
2022-09-10T02:29:18.815Z,99.99
2022-09-10T02:30:18.804Z,99.99
2022-09-10T02:31:18.844Z,99.99
2022-09-10T02:32:19.175Z,99.99
2022-09-10T02:33:18.764Z,99.99
2022-09-10T02:34:18.743Z,99.99
2022-09-10T02:35:18.745Z,99.99
2022-09-10T02:36:18.753Z,99.99
2022-09-10T02:37:19.083Z,99.99
2022-09-10T02:38:18.706Z,99.99
2022-09-10T02:39:18.688Z,99.99
2022-09-10T02:40:18.669Z,99.99
2022-09-10T02:41:18.659Z,99.99
2022-09-10T02:42:18.962Z,99.99
2022-09-10T02:43:18.623Z,99.99
2022-09-10T02:44:18.611Z,99.99
2022-09-10T02:45:18.610Z,99.99
2022-09-10T02:46:18.582Z,99.99
2022-09-10T02:47:19.009Z,99.99
2022-09-10T02:48:18.555Z,99.99
2022-09-10T02:49:18.542Z,99.99
2022-09-10T02:50:18.532Z,99.99
2022-09-10T02:51:18.516Z,99.99
2022-09-10T02:52:19.117Z,99.99
2022-09-10T02:53:18.501Z,99.99
2022-09-10T02:54:18.479Z,99.99
2022-09-10T02:55:18.468Z,99.99
2022-09-10T02:56:18.464Z,99.99
2022-09-10T02:57:18.937Z,99.99
2022-09-10T02:58:18.432Z,99.99
2022-09-10T02:59:18.419Z,99.99
2022-09-10T03:00:18.399Z,99.99
2022-09-10T03:01:18.450Z,99.99
2022-09-10T03:02:18.821Z,99.99
2022-09-10T03:03:18.356Z,99.99
2022-09-10T03:04:18.341Z,99.99
2022-09-10T03:05:18.448Z,99.99
2022-09-10T03:06:18.307Z,99.99
2022-09-10T03:07:18.659Z,99.99
2022-09-10T03:08:18.294Z,99.99
2022-09-10T03:09:18.283Z,99.99
2022-09-10T03:10:18.257Z,99.99
2022-09-10T03:11:18.247Z,99.99
2022-09-10T03:12:18.753Z,99.99
2022-09-10T03:13:18.235Z,99.99
2022-09-10T03:14:18.206Z,99.99
2022-09-10T03:15:18.195Z,99.99
2022-09-10T03:16:18.198Z,99.99
2022-09-10T03:17:18.703Z,99.99
2022-09-10T03:18:18.165Z,99.99
2022-09-10T03:19:18.138Z,99.99
2022-09-10T03:20:18.130Z,99.99
2022-09-10T03:21:18.115Z,99.99
2022-09-10T03:22:18.510Z,99.99
2022-09-10T03:23:18.084Z,99.99
2022-09-10T03:24:18.075Z,99.99
2022-09-10T03:25:18.074Z,99.99
2022-09-10T03:26:18.044Z,99.99
2022-09-10T03:27:18.383Z,99.99
2022-09-10T03:28:18.041Z,99.99
2022-09-10T03:29:18.004Z,99.99
2022-09-10T03:30:18.004Z,99.99
2022-09-10T03:31:18.013Z,99.99
2022-09-10T03:32:18.404Z,99.99
2022-09-10T03:33:17.967Z,99.99
2022-09-10T03:34:17.961Z,99.99
2022-09-10T03:35:17.944Z,99.99
2022-09-10T03:36:17.929Z,99.99
2022-09-10T03:37:18.343Z,99.99
2022-09-10T03:38:17.894Z,99.99
2022-09-10T03:39:17.901Z,99.99
2022-09-10T03:40:17.874Z,99.99
2022-09-10T03:41:17.864Z,99.99
2022-09-10T03:42:18.271Z,99.99
2022-09-10T03:43:17.850Z,99.99
2022-09-10T03:44:17.823Z,99.99
2022-09-10T03:45:17.826Z,99.99
2022-09-10T03:46:17.791Z,99.99
2022-09-10T03:47:18.153Z,99.99
2022-09-10T03:48:17.771Z,99.99
2022-09-10T03:49:17.764Z,99.99
2022-09-10T03:50:17.745Z,99.99
2022-09-10T03:51:17.739Z,99.99
2022-09-10T03:52:18.110Z,99.99
2022-09-10T03:53:17.720Z,99.99
2022-09-10T03:54:17.729Z,99.99
2022-09-10T03:55:17.689Z,99.99
2022-09-10T03:56:17.685Z,99.99
2022-09-10T03:57:18.029Z,99.99
2022-09-10T03:58:17.648Z,99.99
2022-09-10T03:59:17.652Z,99.99
2022-09-10T04:00:17.617Z,99.99
2022-09-10T04:01:17.670Z,99.99
2022-09-10T04:02:17.664Z,99.99
2022-09-10T04:03:18.019Z,99.99
2022-09-10T04:04:17.565Z,99.99
2022-09-10T04:05:17.556Z,99.99
2022-09-10T04:06:17.551Z,99.99
2022-09-10T04:07:17.525Z,99.99
2022-09-10T04:08:17.907Z,99.99
2022-09-10T04:09:17.497Z,99.99
2022-09-10T04:10:17.487Z,99.99
2022-09-10T04:11:17.484Z,99.99
2022-09-10T04:12:17.455Z,99.99
2022-09-10T04:13:17.875Z,99.99
2022-09-10T04:14:17.430Z,99.99
2022-09-10T04:15:17.428Z,99.99
2022-09-10T04:16:17.454Z,99.99
2022-09-10T04:17:17.395Z,99.99
2022-09-10T04:18:17.697Z,99.99
2022-09-10T04:19:17.373Z,99.99
2022-09-10T04:20:17.358Z,99.99
2022-09-10T04:21:17.348Z,99.99
2022-09-10T04:22:17.334Z,99.99
2022-09-10T04:23:17.635Z,99.99
2022-09-10T04:24:17.315Z,99.99
2022-09-10T04:25:17.295Z,99.99
2022-09-10T04:26:17.290Z,99.99
2022-09-10T04:27:17.263Z,99.99
2022-09-10T04:28:17.676Z,99.99
2022-09-10T04:29:17.255Z,99.99
2022-09-10T04:30:17.227Z,99.99
2022-09-10T04:31:17.268Z,99.99
2022-09-10T04:32:17.203Z,99.99
2022-09-10T04:33:17.561Z,99.99
2022-09-10T04:34:17.171Z,99.99
2022-09-10T04:35:17.182Z,99.99
2022-09-10T04:36:17.160Z,99.99
2022-09-10T04:37:19.340Z,99.99
2022-09-10T04:38:17.345Z,99.99
2022-09-10T04:39:17.111Z,99.99
2022-09-10T04:40:17.113Z,99.99
2022-09-10T04:41:17.090Z,99.99
2022-09-10T04:42:17.092Z,99.99
2022-09-10T04:43:17.289Z,99.99
2022-09-10T04:44:17.042Z,99.99
2022-09-10T04:45:17.030Z,99.99
2022-09-10T04:46:17.026Z,99.99
2022-09-10T04:47:17.012Z,99.99
2022-09-10T04:48:17.220Z,99.99
2022-09-10T04:49:16.998Z,99.99
2022-09-10T04:50:16.960Z,99.99
2022-09-10T04:51:17.735Z,99.99
2022-09-10T04:52:16.939Z,99.99
2022-09-10T04:53:17.241Z,99.99
2022-09-10T04:54:16.909Z,99.99
2022-09-10T04:55:16.929Z,99.99
2022-09-10T04:56:16.892Z,99.99
2022-09-10T04:57:16.883Z,99.99
2022-09-10T04:58:17.089Z,99.99
2022-09-10T04:59:16.849Z,99.99
2022-09-10T05:00:16.835Z,99.99
2022-09-10T05:01:16.899Z,99.99
2022-09-10T05:02:16.868Z,99.99
2022-09-10T05:03:17.126Z,99.99
2022-09-10T05:04:16.779Z,99.99
2022-09-10T05:05:16.773Z,99.99
2022-09-10T05:06:16.754Z,99.99
2022-09-10T05:07:16.757Z,99.99
2022-09-10T05:08:17.063Z,99.99
2022-09-10T05:09:16.720Z,99.99
2022-09-10T05:10:16.697Z,99.99
2022-09-10T05:11:16.697Z,99.99
2022-09-10T05:12:16.695Z,99.99
2022-09-10T05:13:16.665Z,99.99
2022-09-10T05:14:17.041Z,99.99
2022-09-10T05:15:16.645Z,99.99
2022-09-10T05:16:16.656Z,99.99
2022-09-10T05:17:16.629Z,99.99
2022-09-10T05:18:16.618Z,99.99
2022-09-10T05:19:17.106Z,99.99
2022-09-10T05:20:16.584Z,99.99
2022-09-10T05:21:16.612Z,99.99
2022-09-10T05:22:16.565Z,99.99
2022-09-10T05:23:16.546Z,99.99
2022-09-10T05:24:16.926Z,99.99
2022-09-10T05:25:16.522Z,99.99
2022-09-10T05:26:16.505Z,99.99
2022-09-10T05:27:16.516Z,99.99
2022-09-10T05:28:16.495Z,99.99
2022-09-10T05:29:16.924Z,99.99
2022-09-10T05:30:16.456Z,99.99
2022-09-10T05:31:16.484Z,99.99
2022-09-10T05:32:16.429Z,99.99
2022-09-10T05:33:16.419Z,99.99
2022-09-10T05:34:17.001Z,99.99
2022-09-10T05:35:16.383Z,99.99
2022-09-10T05:36:16.382Z,99.99
2022-09-10T05:37:16.372Z,99.99
2022-09-10T05:38:16.350Z,99.99
2022-09-10T05:39:16.862Z,99.99
2022-09-10T05:40:16.333Z,99.99
2022-09-10T05:41:16.323Z,99.99
2022-09-10T05:42:16.299Z,99.99
2022-09-10T05:43:16.291Z,99.99
2022-09-10T05:44:16.645Z,99.99
2022-09-10T05:45:16.256Z,99.99
2022-09-10T05:46:16.239Z,99.99
2022-09-10T05:47:16.242Z,99.99
2022-09-10T05:48:16.221Z,99.99
2022-09-10T05:49:16.639Z,99.99
2022-09-10T05:50:16.196Z,99.99
2022-09-10T05:51:16.191Z,99.99
2022-09-10T05:52:16.170Z,99.99
2022-09-10T05:53:16.165Z,99.99
2022-09-10T05:54:16.575Z,99.99
2022-09-10T05:55:16.127Z,99.99
2022-09-10T05:56:16.118Z,99.99
2022-09-10T05:57:16.336Z,99.99
2022-09-10T05:58:16.088Z,99.99
2022-09-10T05:59:16.467Z,99.99
2022-09-10T06:00:16.077Z,99.99
2022-09-10T06:01:16.134Z,99.99
2022-09-10T06:02:16.823Z,99.99
2022-09-10T06:03:16.035Z,99.99
2022-09-10T06:04:16.464Z,99.99
2022-09-10T06:05:16.002Z,99.99
2022-09-10T06:06:15.986Z,99.99
2022-09-10T06:07:15.970Z,99.99
2022-09-10T06:08:15.958Z,99.99
2022-09-10T06:09:16.315Z,99.99
2022-09-10T06:10:15.926Z,99.99
2022-09-10T06:11:15.915Z,99.99
2022-09-10T06:12:15.914Z,99.99
2022-09-10T06:13:15.895Z,99.99
2022-09-10T06:14:16.310Z,99.99
2022-09-10T06:15:15.876Z,99.99
2022-09-10T06:16:15.894Z,99.99
2022-09-10T06:17:15.832Z,99.99
2022-09-10T06:18:15.814Z,99.99
2022-09-10T06:19:16.214Z,99.99
2022-09-10T06:20:15.837Z,99.99
2022-09-10T06:21:15.777Z,99.99
2022-09-10T06:22:15.773Z,99.99
2022-09-10T06:23:15.764Z,99.99
2022-09-10T06:24:16.164Z,99.99
2022-09-10T06:25:15.729Z,99.99
2022-09-10T06:26:15.714Z,99.99
2022-09-10T06:27:15.701Z,99.99
2022-09-10T06:28:15.683Z,99.95
2022-09-10T06:29:16.032Z,99.75
2022-09-10T06:30:15.666Z,99.85
2022-09-10T06:31:15.652Z,99.85
2022-09-10T06:32:15.636Z,99.99
2022-09-10T06:33:15.642Z,99.99
2022-09-10T06:34:16.033Z,99.99
2022-09-10T06:35:15.584Z,99.95
2022-09-10T06:36:15.584Z,99.75
2022-09-10T06:37:15.563Z,99.04
2022-09-10T06:38:15.553Z,99.14
2022-09-10T06:39:15.980Z,99.35
2022-09-10T06:40:15.532Z,99.44
2022-09-10T06:41:15.502Z,99.24
2022-09-10T06:42:15.514Z,99.14
2022-09-10T06:43:15.484Z,98.63
2022-09-10T06:44:15.907Z,98.74
2022-09-10T06:45:15.457Z,98.74
2022-09-10T06:46:50.967Z,98.63
2022-09-10T06:48:32.347Z,98.43
2022-09-10T06:48:38.273Z,98.13
2022-09-10T06:49:16.800Z,98.13
2022-09-10T06:50:15.400Z,98.13
2022-09-10T06:51:15.381Z,98.13
2022-09-10T06:52:15.373Z,97.98
2022-09-10T06:53:15.353Z,97.88
2022-09-10T06:54:15.354Z,97.78
2022-09-10T06:55:15.669Z,97.58
2022-09-10T06:56:15.315Z,97.58
2022-09-10T06:57:15.309Z,97.58
2022-09-10T06:58:15.289Z,97.38
2022-09-10T06:59:15.278Z,97.58
2022-09-10T07:00:15.619Z,97.67
2022-09-10T07:01:15.316Z,97.73
2022-09-10T07:02:15.317Z,97.33
2022-09-10T07:03:15.222Z,97.23
2022-09-10T07:04:15.208Z,97.23
2022-09-10T07:05:15.638Z,97.02
2022-09-10T07:06:15.188Z,96.92
2022-09-10T07:07:15.190Z,96.88
2022-09-10T07:08:15.149Z,96.37
2022-09-10T07:09:15.156Z,96.67
2022-09-10T07:10:15.207Z,96.37
2022-09-10T07:11:15.179Z,96.17
2022-09-10T07:12:15.099Z,95.62
2022-09-10T07:13:15.087Z,95.51
2022-09-10T07:14:15.077Z,94.60
2022-09-10T07:15:15.433Z,92.99
2022-09-10T07:16:15.097Z,93.44
2022-09-10T07:17:15.048Z,93.15
2022-09-10T07:18:15.057Z,92.74
2022-09-10T07:19:15.086Z,92.64
2022-09-10T07:20:15.444Z,92.64
2022-09-10T07:21:14.996Z,91.83
2022-09-10T07:22:14.988Z,91.73
2022-09-10T07:23:15.066Z,91.63
2022-09-10T07:24:15.170Z,92.03
2022-09-10T07:25:15.354Z,91.78
2022-09-10T07:26:14.936Z,91.69
2022-09-10T07:27:14.915Z,91.38
2022-09-10T07:28:14.895Z,90.94
2022-09-10T07:29:14.896Z,90.63
2022-09-10T07:30:14.874Z,90.73
2022-09-10T07:31:15.424Z,90.28
2022-09-10T07:32:14.865Z,89.98
2022-09-10T07:33:14.846Z,89.78
2022-09-10T07:34:14.825Z,88.93
2022-09-10T07:35:15.253Z,88.73
2022-09-10T07:36:14.843Z,88.73
2022-09-10T07:37:14.774Z,88.23
2022-09-10T07:38:14.778Z,88.28
2022-09-10T07:39:14.751Z,87.58
2022-09-10T07:40:14.889Z,87.13
2022-09-10T07:41:15.045Z,86.13
2022-09-10T07:42:14.714Z,85.98
2022-09-10T07:43:14.714Z,85.08
2022-09-10T07:44:14.734Z,85.48
2022-09-10T07:45:15.013Z,84.43
2022-09-10T07:46:14.684Z,84.29
2022-09-10T07:47:14.644Z,82.14
2022-09-10T07:48:14.646Z,81.05
2022-09-10T07:49:14.633Z,78.93
2022-09-10T07:50:14.628Z,77.92
2022-09-10T07:51:14.628Z,78.27
2022-09-10T07:52:14.594Z,78.90
2022-09-10T07:53:14.583Z,79.61
2022-09-10T07:54:14.574Z,79.30
2022-09-10T07:55:14.861Z,78.90
2022-09-10T07:56:14.576Z,78.94
2022-09-10T07:57:14.521Z,80.19
2022-09-10T07:58:14.525Z,80.99
2022-09-10T07:59:14.494Z,80.99
2022-09-10T08:00:14.511Z,80.52
2022-09-10T08:01:14.927Z,81.13
2022-09-10T08:02:14.511Z,82.48
2022-09-10T08:03:14.455Z,80.57
2022-09-10T08:04:14.449Z,81.57
2022-09-10T08:05:14.774Z,81.71
2022-09-10T08:06:14.414Z,82.11
2022-09-10T08:07:14.393Z,81.81
2022-09-10T08:08:14.383Z,82.21
2022-09-10T08:09:14.383Z,81.81
2022-09-10T08:10:14.363Z,81.81
2022-09-10T08:11:14.802Z,81.41
2022-09-10T08:12:14.422Z,80.90
2022-09-10T08:13:14.464Z,81.21
2022-09-10T08:14:14.323Z,81.45
2022-09-10T08:15:14.382Z,82.65
2022-09-10T08:16:14.325Z,82.56
2022-09-10T08:17:14.272Z,82.35
2022-09-10T08:18:14.257Z,82.35
2022-09-10T08:19:14.251Z,81.71
2022-09-10T08:20:14.243Z,81.91
2022-09-10T08:21:14.661Z,81.51
2022-09-10T08:22:14.230Z,81.01
2022-09-10T08:23:14.199Z,80.06
2022-09-10T08:24:14.182Z,79.86
2022-09-10T08:25:14.613Z,79.66
2022-09-10T08:26:14.154Z,79.46
2022-09-10T08:27:14.159Z,79.56
2022-09-10T08:28:14.144Z,78.91
2022-09-10T08:29:14.107Z,78.81
2022-09-10T08:30:14.105Z,78.11
2022-09-10T08:31:14.572Z,78.41
2022-09-10T08:32:14.090Z,78.38
2022-09-10T08:33:14.060Z,78.17
2022-09-10T08:34:14.079Z,78.07
2022-09-10T08:35:14.486Z,77.57
2022-09-10T08:36:14.023Z,76.97
2022-09-10T08:37:14.015Z,76.76
2022-09-10T08:38:14.001Z,76.23
2022-09-10T08:39:13.980Z,76.83
2022-09-10T08:40:14.470Z,76.73
2022-09-10T08:41:13.959Z,76.09
2022-09-10T08:42:13.960Z,76.39
2022-09-10T08:43:13.940Z,76.69
2022-09-10T08:44:13.939Z,75.38
2022-09-10T08:45:14.354Z,74.38
2022-09-10T08:46:13.960Z,74.35
2022-09-10T08:47:13.899Z,74.44
2022-09-10T08:48:13.879Z,74.35
2022-09-10T08:49:13.869Z,74.44
2022-09-10T08:50:14.216Z,75.15
2022-09-10T08:51:13.859Z,75.11
2022-09-10T08:52:13.819Z,74.37
2022-09-10T08:53:13.809Z,73.17
2022-09-10T08:54:13.801Z,72.53
2022-09-10T08:55:14.099Z,71.93
2022-09-10T08:56:13.773Z,72.00
2022-09-10T08:57:13.758Z,71.56
2022-09-10T08:58:13.758Z,71.33
2022-09-10T08:59:13.729Z,71.53
2022-09-10T09:00:13.744Z,70.32
2022-09-10T09:01:14.139Z,69.99
2022-09-10T09:02:26.262Z,69.99
2022-09-10T09:03:14.699Z,69.46
2022-09-10T09:04:13.678Z,68.76
2022-09-10T09:05:13.989Z,68.26
2022-09-10T09:06:13.639Z,68.69
2022-09-10T09:07:13.638Z,68.89
2022-09-10T09:08:13.622Z,69.49
2022-09-10T09:09:15.621Z,69.19
2022-09-10T09:10:13.693Z,69.46
2022-09-10T09:11:14.011Z,68.49
2022-09-10T09:12:13.580Z,68.46
2022-09-10T09:13:13.586Z,67.76
2022-09-10T09:14:13.602Z,68.23
2022-09-10T09:15:13.988Z,68.73
2022-09-10T09:16:13.561Z,67.69
2022-09-10T09:17:13.498Z,66.69
2022-09-10T09:18:13.495Z,66.49
2022-09-10T09:19:13.496Z,66.52
2022-09-10T09:20:13.477Z,66.22
2022-09-10T09:21:13.830Z,67.13
2022-09-10T09:22:13.449Z,67.09
2022-09-10T09:23:13.440Z,67.22
2022-09-10T09:24:14.081Z,66.32
2022-09-10T09:25:13.849Z,66.22
2022-09-10T09:26:13.389Z,66.63
2022-09-10T09:27:13.378Z,66.89
2022-09-10T09:28:13.360Z,67.06
2022-09-10T09:29:13.359Z,66.06
2022-09-10T09:30:13.340Z,64.99
2022-09-10T09:31:13.763Z,65.76
2022-09-10T09:32:13.319Z,64.99
2022-09-10T09:33:13.300Z,65.99
2022-09-10T09:34:13.289Z,65.79
2022-09-10T09:35:13.598Z,65.59
2022-09-10T09:36:13.265Z,66.09
2022-09-10T09:37:13.257Z,66.32
2022-09-10T09:38:13.245Z,66.52
2022-09-10T09:39:13.237Z,66.52
2022-09-10T09:40:13.344Z,65.42
2022-09-10T09:41:13.628Z,65.69
2022-09-10T09:42:13.198Z,66.28
2022-09-10T09:43:13.196Z,66.59
2022-09-10T09:44:13.169Z,66.99
2022-09-10T09:45:13.200Z,66.39
2022-09-10T09:46:13.176Z,67.05
2022-09-10T09:47:13.136Z,66.52
2022-09-10T09:48:13.108Z,65.36
2022-09-10T09:49:13.101Z,66.05
2022-09-10T09:50:13.084Z,65.42
2022-09-10T09:51:13.606Z,65.33
2022-09-10T09:52:13.058Z,64.79
2022-09-10T09:53:13.051Z,63.89
2022-09-10T09:54:46.448Z,63.19
2022-09-10T09:55:15.736Z,63.02
2022-09-10T09:56:13.008Z,63.22
2022-09-10T09:57:12.988Z,64.78
2022-09-10T09:58:13.017Z,64.81
2022-09-10T09:59:15.062Z,65.82
2022-09-10T10:00:12.964Z,66.19
2022-09-10T10:01:13.425Z,65.82
2022-09-10T10:02:12.971Z,65.31
2022-09-10T10:03:12.929Z,65.62
2022-09-10T10:04:12.907Z,65.62
2022-09-10T10:05:13.673Z,65.42
2022-09-10T10:06:12.898Z,65.62
2022-09-10T10:07:12.878Z,66.02
2022-09-10T10:08:12.858Z,65.69
2022-09-10T10:09:12.838Z,66.19
2022-09-10T10:10:12.860Z,65.28
2022-09-10T10:11:13.271Z,65.78
2022-09-10T10:12:12.813Z,65.39
2022-09-10T10:13:12.845Z,65.45
2022-09-10T10:14:12.831Z,65.86
2022-09-10T10:15:13.152Z,65.86
2022-09-10T10:16:12.810Z,64.95
2022-09-10T10:17:12.785Z,64.15
2022-09-10T10:18:12.732Z,64.55
2022-09-10T10:19:12.709Z,64.65
2022-09-10T10:20:12.710Z,64.36
2022-09-10T10:21:13.090Z,63.95
2022-09-10T10:22:12.686Z,65.66
2022-09-10T10:23:12.666Z,65.12
2022-09-10T10:24:12.657Z,63.53
2022-09-10T10:25:12.671Z,63.42
2022-09-10T10:26:12.657Z,63.32
2022-09-10T10:27:12.612Z,63.69
2022-09-10T10:28:12.604Z,63.06
2022-09-10T10:29:12.608Z,62.26
2022-09-10T10:30:12.579Z,62.06
2022-09-10T10:31:12.945Z,63.19
2022-09-10T10:32:12.639Z,62.29
2022-09-10T10:33:12.529Z,62.46
2022-09-10T10:34:12.530Z,62.96
2022-09-10T10:35:12.558Z,62.96
2022-09-10T10:36:12.498Z,63.26
2022-09-10T10:37:12.489Z,63.26
2022-09-10T10:38:12.475Z,62.26
2022-09-10T10:39:12.458Z,61.93
2022-09-10T10:40:12.477Z,61.33
2022-09-10T10:41:12.890Z,61.43
2022-09-10T10:42:12.450Z,62.37
2022-09-10T10:43:12.588Z,61.57
2022-09-10T10:44:12.395Z,61.63
2022-09-10T10:45:12.727Z,61.83
2022-09-10T10:46:12.414Z,61.54
2022-09-10T10:47:12.438Z,61.83
2022-09-10T10:48:12.350Z,61.93
2022-09-10T10:49:12.357Z,62.34
2022-09-10T10:50:12.490Z,61.76
2022-09-10T10:51:12.678Z,62.39
2022-09-10T10:52:12.297Z,62.79
2022-09-10T10:53:12.305Z,62.26
2022-09-10T10:54:12.273Z,62.96
2022-09-10T10:55:12.328Z,62.53
2022-09-10T10:56:12.259Z,62.73
2022-09-10T10:57:12.237Z,62.63
2022-09-10T10:58:12.219Z,61.73
2022-09-10T10:59:12.208Z,61.33
2022-09-10T11:00:12.273Z,61.43
2022-09-10T11:01:12.218Z,62.13
2022-09-10T11:02:12.306Z,61.73
2022-09-10T11:03:12.168Z,62.76
2022-09-10T11:04:12.146Z,62.56
2022-09-10T11:05:12.158Z,63.09
2022-09-10T11:06:12.124Z,63.29
2022-09-10T11:07:12.106Z,64.36
2022-09-10T11:08:12.097Z,63.73
2022-09-10T11:09:12.078Z,62.77
2022-09-10T11:10:12.447Z,62.15
2022-09-10T11:11:12.070Z,61.52
2022-09-10T11:12:12.038Z,58.72
2022-09-10T11:13:12.156Z,58.72
2022-09-10T11:14:12.011Z,58.15
2022-09-10T11:15:12.038Z,60.17
2022-09-10T11:16:12.031Z,60.71
2022-09-10T11:17:11.988Z,61.51
2022-09-10T11:18:11.967Z,61.41
2022-09-10T11:19:11.960Z,60.71
2022-09-10T11:20:27.800Z,60.83
2022-09-10T11:21:12.935Z,61.24
2022-09-10T11:22:11.908Z,61.26
2022-09-10T11:23:11.897Z,62.79
2022-09-10T11:24:16.347Z,62.99
2022-09-10T11:25:13.421Z,63.17
2022-09-10T11:26:11.868Z,61.66
2022-09-10T11:27:11.857Z,61.36
2022-09-10T11:28:11.828Z,61.29
2022-09-10T11:29:11.832Z,61.36
2022-09-10T11:30:11.807Z,61.49
2022-09-10T11:31:12.044Z,62.16
2022-09-10T11:32:11.810Z,61.66
2022-09-10T11:33:11.798Z,61.36
2022-09-10T11:34:11.839Z,60.86
2022-09-10T11:35:12.197Z,61.36
2022-09-10T11:36:11.736Z,61.16
2022-09-10T11:37:11.769Z,60.29
2022-09-10T11:38:11.788Z,59.66
2022-09-10T11:39:11.698Z,60.79
2022-09-10T11:40:11.743Z,59.39
2022-09-10T11:41:11.703Z,58.67
2022-09-10T11:42:11.908Z,58.86
2022-09-10T11:43:11.649Z,58.86
2022-09-10T11:44:11.627Z,59.09
2022-09-10T11:45:11.933Z,58.80
2022-09-10T11:46:11.669Z,59.39
2022-09-10T11:47:11.603Z,59.30
2022-09-10T11:48:11.597Z,59.62
2022-09-10T11:49:11.585Z,60.85
2022-09-10T11:50:11.555Z,60.45
2022-09-10T11:51:11.997Z,60.58
2022-09-10T11:52:11.526Z,61.68
2022-09-10T11:53:11.534Z,61.21
2022-09-10T11:54:11.507Z,61.51
2022-09-10T11:55:11.884Z,61.94
2022-09-10T11:56:11.497Z,62.64
2022-09-10T11:57:11.510Z,62.71
2022-09-10T11:58:11.467Z,62.92
2022-09-10T11:59:11.448Z,62.78
2022-09-10T12:00:11.465Z,61.78
2022-09-10T12:01:11.424Z,61.28
2022-09-10T12:02:11.481Z,61.45
2022-09-10T12:03:11.430Z,61.45
2022-09-10T12:04:11.386Z,61.95
2022-09-10T12:05:11.799Z,61.85
2022-09-10T12:06:11.674Z,61.02
2022-09-10T12:07:11.348Z,60.62
2022-09-10T12:08:11.346Z,58.42
2022-09-10T12:09:11.336Z,59.02
2022-09-10T12:10:14.334Z,59.22
2022-09-10T12:11:11.605Z,58.12
2022-09-10T12:12:11.287Z,59.45
2022-09-10T12:13:11.295Z,59.38
2022-09-10T12:14:11.265Z,58.07
2022-09-10T12:15:11.635Z,58.68
2022-09-10T12:16:11.299Z,58.07
2022-09-10T12:17:11.222Z,57.95
2022-09-10T12:18:11.205Z,58.65
2022-09-10T12:19:14.995Z,57.24
2022-09-10T12:20:11.343Z,58.18
2022-09-10T12:21:11.224Z,58.28
2022-09-10T12:22:11.180Z,58.65
2022-09-10T12:23:11.344Z,58.85
2022-09-10T12:24:11.124Z,58.95
2022-09-10T12:25:11.424Z,58.75
2022-09-10T12:26:11.123Z,59.58
2022-09-10T12:27:11.106Z,59.45
2022-09-10T12:28:11.074Z,59.68
2022-09-10T12:29:11.064Z,59.48
2022-09-10T12:30:11.099Z,59.48
2022-09-10T12:31:11.255Z,59.45
2022-09-10T12:32:11.034Z,59.25
2022-09-10T12:33:11.022Z,59.15
2022-09-10T12:34:11.005Z,58.32
2022-09-10T12:35:11.308Z,57.75
2022-09-10T12:36:10.974Z,58.02
2022-09-10T12:37:10.988Z,58.15
2022-09-10T12:38:10.955Z,58.85
2022-09-10T12:39:10.941Z,58.75
2022-09-10T12:40:13.149Z,58.32
2022-09-10T12:41:11.101Z,58.29
2022-09-10T12:42:10.944Z,57.79
2022-09-10T12:43:10.884Z,57.87
2022-09-10T12:44:10.874Z,57.37
2022-09-10T12:45:10.904Z,57.17
2022-09-10T12:46:10.905Z,57.79
2022-09-10T12:47:10.847Z,57.39
2022-09-10T12:48:10.822Z,57.39
2022-09-10T12:49:10.812Z,57.62
2022-09-10T12:50:10.797Z,58.82
2022-09-10T12:51:11.233Z,57.22
2022-09-10T12:52:10.763Z,56.92